sensor_id;sensor_type;location;lat;lon;timestamp;pressure;altitude;pressure_sealevel;temperature;humidity
8061;BME280;4073;42.626;25.386;2023-06-26T00:01:15;96743.31;;;20.70;100.00
8061;BME280;4073;42.626;25.386;2023-06-26T00:03:41;96743.94;;;20.63;100.00
8061;BME280;4073;42.626;25.386;2023-06-26T00:06:06;96743.53;;;20.49;100.00
8061;BME280;4073;42.626;25.386;2023-06-26T00:08:31;96742.63;;;20.45;100.00
8061;BME280;4073;42.626;25.386;2023-06-26T00:10:57;96740.72;;;20.46;100.00
8061;BME280;4073;42.626;25.386;2023-06-26T00:13:23;96743.44;;;20.46;100.00
8061;BME280;4073;42.626;25.386;2023-06-26T00:15:50;96742.63;;;20.45;100.00
8061;BME280;4073;42.626;25.386;2023-06-26T00:18:15;96743.34;;;20.42;100.00
8061;BME280;4073;42.626;25.386;2023-06-26T00:20:41;96732.09;;;20.43;100.00
8061;BME280;4073;42.626;25.386;2023-06-26T00:23:06;96746.13;;;20.46;100.00
8061;BME280;4073;42.626;25.386;2023-06-26T00:25:35;96742.97;;;20.43;100.00
8061;BME280;4073;42.626;25.386;2023-06-26T00:28:01;96741.66;;;20.38;100.00
8061;BME280;4073;42.626;25.386;2023-06-26T00:30:28;96747.63;;;20.43;100.00
8061;BME280;4073;42.626;25.386;2023-06-26T00:32:53;96745.47;;;20.36;100.00
8061;BME280;4073;42.626;25.386;2023-06-26T00:35:19;96739.38;;;20.39;100.00
8061;BME280;4073;42.626;25.386;2023-06-26T00:37:44;96734.00;;;20.27;100.00
8061;BME280;4073;42.626;25.386;2023-06-26T00:40:10;96734.56;;;20.21;100.00
8061;BME280;4073;42.626;25.386;2023-06-26T00:42:35;96732.78;;;20.13;100.00
8061;BME280;4073;42.626;25.386;2023-06-26T00:45:01;96731.06;;;20.08;100.00
8061;BME280;4073;42.626;25.386;2023-06-26T00:47:27;96733.13;;;20.11;100.00
8061;BME280;4073;42.626;25.386;2023-06-26T00:49:53;96735.16;;;20.14;100.00
8061;BME280;4073;42.626;25.386;2023-06-26T00:52:19;96720.97;;;20.21;100.00
8061;BME280;4073;42.626;25.386;2023-06-26T00:54:45;96730.72;;;20.22;100.00
8061;BME280;4073;42.626;25.386;2023-06-26T00:57:11;96739.28;;;20.24;100.00
8061;BME280;4073;42.626;25.386;2023-06-26T00:59:37;96731.97;;;20.24;100.00
8061;BME280;4073;42.626;25.386;2023-06-26T01:02:03;96720.56;;;20.19;100.00
8061;BME280;4073;42.626;25.386;2023-06-26T01:04:29;96737.38;;;20.24;100.00
8061;BME280;4073;42.626;25.386;2023-06-26T01:06:59;96738.75;;;20.18;100.00
8061;BME280;4073;42.626;25.386;2023-06-26T01:09:25;96740.91;;;20.13;100.00
8061;BME280;4073;42.626;25.386;2023-06-26T01:11:51;96730.41;;;20.11;100.00
8061;BME280;4073;42.626;25.386;2023-06-26T01:14:17;96738.19;;;20.13;100.00
8061;BME280;4073;42.626;25.386;2023-06-26T01:16:43;96730.72;;;20.10;100.00
8061;BME280;4073;42.626;25.386;2023-06-26T01:19:32;96730.72;;;20.10;100.00
8061;BME280;4073;42.626;25.386;2023-06-26T01:22:31;96719.19;;;20.13;100.00
8061;BME280;4073;42.626;25.386;2023-06-26T01:25:13;96724.28;;;20.14;100.00
8061;BME280;4073;42.626;25.386;2023-06-26T01:27:45;96719.78;;;20.06;100.00
8061;BME280;4073;42.626;25.386;2023-06-26T01:30:12;96714.78;;;20.08;100.00
8061;BME280;4073;42.626;25.386;2023-06-26T01:32:39;96715.13;;;20.07;100.00
8061;BME280;4073;42.626;25.386;2023-06-26T01:35:06;96715.91;;;20.07;100.00
8061;BME280;4073;42.626;25.386;2023-06-26T01:37:32;96708.91;;;20.06;100.00
8061;BME280;4073;42.626;25.386;2023-06-26T01:39:57;96714.78;;;20.08;100.00
8061;BME280;4073;42.626;25.386;2023-06-26T01:42:23;96697.13;;;20.02;100.00
8061;BME280;4073;42.626;25.386;2023-06-26T01:44:48;96695.13;;;19.99;100.00
8061;BME280;4073;42.626;25.386;2023-06-26T01:47:20;96706.69;;;19.96;100.00
8061;BME280;4073;42.626;25.386;2023-06-26T01:49:56;96693.66;;;19.90;100.00
8061;BME280;4073;42.626;25.386;2023-06-26T01:52:28;96699.31;;;19.97;100.00
8061;BME280;4073;42.626;25.386;2023-06-26T01:55:45;96699.09;;;20.02;100.00
8061;BME280;4073;42.626;25.386;2023-06-26T01:57:52;96700.44;;;20.08;100.00
8061;BME280;4073;42.626;25.386;2023-06-26T02:00:20;96700.22;;;20.13;100.00
8061;BME280;4073;42.626;25.386;2023-06-26T02:02:46;96692.88;;;20.13;100.00
8061;BME280;4073;42.626;25.386;2023-06-26T02:05:13;96695.66;;;20.17;100.00
8061;BME280;4073;42.626;25.386;2023-06-26T02:07:39;96689.91;;;20.18;100.00
8061;BME280;4073;42.626;25.386;2023-06-26T02:10:05;96707.53;;;20.24;100.00
8061;BME280;4073;42.626;25.386;2023-06-26T02:12:30;96708.41;;;20.28;100.00
8061;BME280;4073;42.626;25.386;2023-06-26T02:14:56;96712.16;;;20.24;100.00
8061;BME280;4073;42.626;25.386;2023-06-26T02:17:21;96711.19;;;20.16;100.00
8061;BME280;4073;42.626;25.386;2023-06-26T02:19:47;96711.03;;;20.25;100.00
8061;BME280;4073;42.626;25.386;2023-06-26T02:22:16;96715.75;;;20.28;100.00
8061;BME280;4073;42.626;25.386;2023-06-26T02:24:42;96713.84;;;20.28;100.00
8061;BME280;4073;42.626;25.386;2023-06-26T02:27:09;96706.38;;;20.25;100.00
8061;BME280;4073;42.626;25.386;2023-06-26T02:29:34;96711.81;;;20.25;100.00
8061;BME280;4073;42.626;25.386;2023-06-26T02:32:00;96714.44;;;20.22;100.00
8061;BME280;4073;42.626;25.386;2023-06-26T02:34:25;96714.44;;;20.22;100.00
8061;BME280;4073;42.626;25.386;2023-06-26T02:36:51;96718.94;;;20.18;100.00
8061;BME280;4073;42.626;25.386;2023-06-26T02:39:20;96709.16;;;20.13;100.00
8061;BME280;4073;42.626;25.386;2023-06-26T02:41:45;96703.91;;;20.08;100.00
8061;BME280;4073;42.626;25.386;2023-06-26T02:44:10;96709.16;;;20.13;100.00
8061;BME280;4073;42.626;25.386;2023-06-26T02:46:37;96715.81;;;20.16;100.00
8061;BME280;4073;42.626;25.386;2023-06-26T02:49:03;96715.75;;;20.28;100.00
8061;BME280;4073;42.626;25.386;2023-06-26T02:51:28;96720.28;;;20.36;100.00
8061;BME280;4073;42.626;25.386;2023-06-26T02:53:54;96719.25;;;20.41;100.00
8061;BME280;4073;42.626;25.386;2023-06-26T02:56:19;96712.66;;;20.42;100.00
8061;BME280;4073;42.626;25.386;2023-06-26T02:58:45;96706.00;;;20.39;100.00
8061;BME280;4073;42.626;25.386;2023-06-26T03:01:10;96718.19;;;20.45;100.00
8061;BME280;4073;42.626;25.386;2023-06-26T03:03:36;96714.16;;;20.39;100.00
8061;BME280;4073;42.626;25.386;2023-06-26T03:06:06;96714.00;;;20.48;100.00
8061;BME280;4073;42.626;25.386;2023-06-26T03:08:33;96714.34;;;20.46;100.00
8061;BME280;4073;42.626;25.386;2023-06-26T03:10:58;96730.72;;;20.50;100.00
8061;BME280;4073;42.626;25.386;2023-06-26T03:13:24;96723.72;;;20.49;100.00
8061;BME280;4073;42.626;25.386;2023-06-26T03:15:49;96734.25;;;20.50;100.00
8061;BME280;4073;42.626;25.386;2023-06-26T03:18:15;96739.00;;;20.53;100.00
8061;BME280;4073;42.626;25.386;2023-06-26T03:20:40;96736.72;;;20.55;100.00
8061;BME280;4073;42.626;25.386;2023-06-26T03:23:06;96744.50;;;20.57;100.00
8061;BME280;4073;42.626;25.386;2023-06-26T03:25:31;96748.03;;;20.57;100.00
8061;BME280;4073;42.626;25.386;2023-06-26T03:27:57;96743.47;;;20.61;100.00
8061;BME280;4073;42.626;25.386;2023-06-26T03:30:22;96738.72;;;20.58;100.00
8061;BME280;4073;42.626;25.386;2023-06-26T03:32:48;96743.59;;;20.65;100.00
8061;BME280;4073;42.626;25.386;2023-06-26T03:35:13;96754.31;;;20.73;100.00
8061;BME280;4073;42.626;25.386;2023-06-26T03:37:39;96744.00;;;20.67;100.00
8061;BME280;4073;42.626;25.386;2023-06-26T03:40:06;96751.59;;;20.73;100.00
8061;BME280;4073;42.626;25.386;2023-06-26T03:42:31;96748.00;;;20.69;100.00
8061;BME280;4073;42.626;25.386;2023-06-26T03:44:57;96732.97;;;20.60;100.00
8061;BME280;4073;42.626;25.386;2023-06-26T03:47:22;96747.75;;;20.62;100.00
8061;BME280;4073;42.626;25.386;2023-06-26T03:49:48;96743.06;;;20.59;100.00
8061;BME280;4073;42.626;25.386;2023-06-26T03:52:13;96736.47;;;20.60;100.00
8061;BME280;4073;42.626;25.386;2023-06-26T03:54:39;96732.38;;;20.66;100.00
8061;BME280;4073;42.626;25.386;2023-06-26T03:57:04;96735.19;;;20.70;100.00
8061;BME280;4073;42.626;25.386;2023-06-26T03:59:30;96731.38;;;20.59;100.00
8061;BME280;4073;42.626;25.386;2023-06-26T04:01:55;96739.13;;;20.72;100.00
8061;BME280;4073;42.626;25.386;2023-06-26T04:04:21;96741.41;;;20.70;100.00
8061;BME280;4073;42.626;25.386;2023-06-26T04:06:47;96736.97;;;20.78;100.00
8061;BME280;4073;42.626;25.386;2023-06-26T04:09:12;96745.66;;;20.83;100.00
8061;BME280;4073;42.626;25.386;2023-06-26T04:11:38;96743.81;;;20.87;100.00
8061;BME280;4073;42.626;25.386;2023-06-26T04:14:03;96744.84;;;20.95;100.00
8061;BME280;4073;42.626;25.386;2023-06-26T04:16:29;96738.69;;;20.98;100.00
8061;BME280;4073;42.626;25.386;2023-06-26T04:18:54;96736.75;;;20.98;100.00
8061;BME280;4073;42.626;25.386;2023-06-26T04:21:21;96739.25;;;21.03;100.00
8061;BME280;4073;42.626;25.386;2023-06-26T04:23:50;96743.19;;;21.06;100.00
8061;BME280;4073;42.626;25.386;2023-06-26T04:26:16;96747.03;;;21.05;100.00
8061;BME280;4073;42.626;25.386;2023-06-26T04:28:41;96747.03;;;21.05;100.00
8061;BME280;4073;42.626;25.386;2023-06-26T04:31:07;96741.97;;;21.03;100.00
8061;BME280;4073;42.626;25.386;2023-06-26T04:33:34;96738.34;;;20.99;100.00
8061;BME280;4073;42.626;25.386;2023-06-26T04:36:04;96750.31;;;21.10;100.00
8061;BME280;4073;42.626;25.386;2023-06-26T04:38:33;96740.19;;;21.11;100.00
8061;BME280;4073;42.626;25.386;2023-06-26T04:41:01;96754.78;;;21.18;100.00
8061;BME280;4073;42.626;25.386;2023-06-26T04:43:27;96768.44;;;21.22;100.00
8061;BME280;4073;42.626;25.386;2023-06-26T04:45:53;96767.66;;;21.21;100.00
8061;BME280;4073;42.626;25.386;2023-06-26T04:48:19;96775.03;;;21.21;100.00
8061;BME280;4073;42.626;25.386;2023-06-26T04:50:44;96771.97;;;21.22;100.00
8061;BME280;4073;42.626;25.386;2023-06-26T04:53:17;96777.94;;;21.28;100.00
8061;BME280;4073;42.626;25.386;2023-06-26T04:55:43;96778.63;;;21.25;100.00
8061;BME280;4073;42.626;25.386;2023-06-26T04:58:08;96793.28;;;21.20;100.00
8061;BME280;4073;42.626;25.386;2023-06-26T05:00:34;96790.47;;;21.17;100.00
8061;BME280;4073;42.626;25.386;2023-06-26T05:03:01;96791.50;;;21.12;100.00
8061;BME280;4073;42.626;25.386;2023-06-26T05:05:27;96793.59;;;21.03;100.00
8061;BME280;4073;42.626;25.386;2023-06-26T05:07:54;96784.13;;;20.85;100.00
8061;BME280;4073;42.626;25.386;2023-06-26T05:10:20;96800.75;;;20.84;100.00
8061;BME280;4073;42.626;25.386;2023-06-26T05:12:45;96790.16;;;20.79;100.00
8061;BME280;4073;42.626;25.386;2023-06-26T05:15:11;96794.03;;;20.78;100.00
8061;BME280;4073;42.626;25.386;2023-06-26T05:17:36;96789.69;;;20.77;100.00
8061;BME280;4073;42.626;25.386;2023-06-26T05:20:02;96790.66;;;20.69;100.00
8061;BME280;4073;42.626;25.386;2023-06-26T05:22:29;96796.22;;;20.60;100.00
8061;BME280;4073;42.626;25.386;2023-06-26T05:24:55;96786.03;;;20.57;100.00
8061;BME280;4073;42.626;25.386;2023-06-26T05:27:21;96795.06;;;20.61;100.00
8061;BME280;4073;42.626;25.386;2023-06-26T05:29:50;96796.91;;;20.57;100.00
8061;BME280;4073;42.626;25.386;2023-06-26T05:32:16;96798.06;;;20.56;100.00
8061;BME280;4073;42.626;25.386;2023-06-26T05:34:48;96799.75;;;20.61;100.00
8061;BME280;4073;42.626;25.386;2023-06-26T05:37:20;96805.16;;;20.61;100.00
8061;BME280;4073;42.626;25.386;2023-06-26T05:39:47;96793.94;;;20.62;100.00
8061;BME280;4073;42.626;25.386;2023-06-26T05:42:13;96796.78;;;20.66;100.00
8061;BME280;4073;42.626;25.386;2023-06-26T05:44:39;96810.22;;;20.62;100.00
8061;BME280;4073;42.626;25.386;2023-06-26T05:47:04;96797.56;;;20.66;100.00
8061;BME280;4073;42.626;25.386;2023-06-26T05:49:30;96805.91;;;20.73;100.00
8061;BME280;4073;42.626;25.386;2023-06-26T05:51:56;96812.31;;;20.81;100.00
8061;BME280;4073;42.626;25.386;2023-06-26T05:54:23;96808.00;;;20.92;100.00
8061;BME280;4073;42.626;25.386;2023-06-26T05:56:51;96811.47;;;21.04;100.00
8061;BME280;4073;42.626;25.386;2023-06-26T05:59:21;96811.66;;;21.11;100.00
8061;BME280;4073;42.626;25.386;2023-06-26T06:01:47;96822.53;;;21.11;100.00
8061;BME280;4073;42.626;25.386;2023-06-26T06:04:13;96824.19;;;21.00;100.00
8061;BME280;4073;42.626;25.386;2023-06-26T06:06:38;96826.63;;;20.78;100.00
8061;BME280;4073;42.626;25.386;2023-06-26T06:09:04;96832.75;;;20.63;100.00
8061;BME280;4073;42.626;25.386;2023-06-26T06:11:29;96831.31;;;20.53;100.00
8061;BME280;4073;42.626;25.386;2023-06-26T06:13:54;96826.66;;;20.54;100.00
8061;BME280;4073;42.626;25.386;2023-06-26T06:16:20;96828.75;;;20.45;100.00
8061;BME280;4073;42.626;25.386;2023-06-26T06:18:45;96826.50;;;20.34;100.00
8061;BME280;4073;42.626;25.386;2023-06-26T06:21:11;96829.66;;;20.24;100.00
8061;BME280;4073;42.626;25.386;2023-06-26T06:23:36;96833.03;;;20.09;100.00
8061;BME280;4073;42.626;25.386;2023-06-26T06:26:03;96830.34;;;19.97;100.00
8061;BME280;4073;42.626;25.386;2023-06-26T06:28:29;96824.34;;;19.80;100.00
8061;BME280;4073;42.626;25.386;2023-06-26T06:30:54;96824.09;;;19.73;100.00
8061;BME280;4073;42.626;25.386;2023-06-26T06:33:20;96825.25;;;19.72;100.00
8061;BME280;4073;42.626;25.386;2023-06-26T06:35:45;96813.94;;;19.70;100.00
8061;BME280;4073;42.626;25.386;2023-06-26T06:38:10;96821.19;;;19.78;100.00
8061;BME280;4073;42.626;25.386;2023-06-26T06:40:36;96820.06;;;19.79;100.00
8061;BME280;4073;42.626;25.386;2023-06-26T06:43:01;96825.69;;;19.86;100.00
8061;BME280;4073;42.626;25.386;2023-06-26T06:45:27;96826.50;;;19.86;100.00
8061;BME280;4073;42.626;25.386;2023-06-26T06:47:52;96821.97;;;19.90;100.00
8061;BME280;4073;42.626;25.386;2023-06-26T06:50:18;96833.06;;;19.97;100.00
8061;BME280;4073;42.626;25.386;2023-06-26T06:52:43;96832.47;;;20.04;100.00
8061;BME280;4073;42.626;25.386;2023-06-26T06:55:09;96832.25;;;20.09;100.00
8061;BME280;4073;42.626;25.386;2023-06-26T06:57:38;96836.25;;;20.11;100.00
8061;BME280;4073;42.626;25.386;2023-06-26T07:00:07;96833.88;;;20.22;100.00
8061;BME280;4073;42.626;25.386;2023-06-26T07:02:37;96834.28;;;20.36;100.00
8061;BME280;4073;42.626;25.386;2023-06-26T07:05:04;96832.34;;;20.49;100.00
8061;BME280;4073;42.626;25.386;2023-06-26T07:07:31;96843.53;;;20.59;100.00
8061;BME280;4073;42.626;25.386;2023-06-26T07:09:59;96845.78;;;20.69;100.00
8061;BME280;4073;42.626;25.386;2023-06-26T07:12:24;96833.50;;;20.75;100.00
8061;BME280;4073;42.626;25.386;2023-06-26T07:14:50;96840.41;;;20.85;100.00
8061;BME280;4073;42.626;25.386;2023-06-26T07:17:15;96840.50;;;20.88;100.00
8061;BME280;4073;42.626;25.386;2023-06-26T07:19:41;96851.25;;;20.97;100.00
8061;BME280;4073;42.626;25.386;2023-06-26T07:22:06;96851.00;;;21.02;100.00
8061;BME280;4073;42.626;25.386;2023-06-26T07:24:32;96851.09;;;21.05;100.00
8061;BME280;4073;42.626;25.386;2023-06-26T07:26:57;96866.25;;;21.06;100.00
8061;BME280;4073;42.626;25.386;2023-06-26T07:29:23;96864.34;;;21.07;100.00
8061;BME280;4073;42.626;25.386;2023-06-26T07:31:48;96870.47;;;21.04;100.00
8061;BME280;4073;42.626;25.386;2023-06-26T07:34:14;96868.78;;;20.99;100.00
8061;BME280;4073;42.626;25.386;2023-06-26T07:36:39;96877.72;;;21.00;100.00
8061;BME280;4073;42.626;25.386;2023-06-26T07:39:05;96877.28;;;20.98;100.00
8061;BME280;4073;42.626;25.386;2023-06-26T07:41:30;96872.41;;;20.91;100.00
8061;BME280;4073;42.626;25.386;2023-06-26T07:43:57;96875.38;;;20.86;100.00
8061;BME280;4073;42.626;25.386;2023-06-26T07:46:23;96875.59;;;20.81;100.00
8061;BME280;4073;42.626;25.386;2023-06-26T07:48:49;96871.31;;;20.80;100.00
8061;BME280;4073;42.626;25.386;2023-06-26T07:51:14;96879.47;;;20.68;100.00
8061;BME280;4073;42.626;25.386;2023-06-26T07:53:40;96879.06;;;20.66;100.00
8061;BME280;4073;42.626;25.386;2023-06-26T07:56:06;96879.75;;;20.63;100.00
8061;BME280;4073;42.626;25.386;2023-06-26T07:58:32;96879.06;;;20.66;100.00
8061;BME280;4073;42.626;25.386;2023-06-26T08:00:57;96877.78;;;20.64;100.00
8061;BME280;4073;42.626;25.386;2023-06-26T08:03:22;96868.75;;;20.60;100.00
8061;BME280;4073;42.626;25.386;2023-06-26T08:05:49;96880.22;;;20.53;100.00
8061;BME280;4073;42.626;25.386;2023-06-26T08:08:14;96878.16;;;20.50;100.00
8061;BME280;4073;42.626;25.386;2023-06-26T08:10:40;96880.75;;;20.59;100.00
8061;BME280;4073;42.626;25.386;2023-06-26T08:13:05;96879.47;;;20.68;100.00
8061;BME280;4073;42.626;25.386;2023-06-26T08:15:31;96867.25;;;20.74;100.00
8061;BME280;4073;42.626;25.386;2023-06-26T08:17:56;96881.06;;;20.93;100.00
8061;BME280;4073;42.626;25.386;2023-06-26T08:20:21;96864.03;;;20.96;100.00
8061;BME280;4073;42.626;25.386;2023-06-26T08:22:48;96879.00;;;21.18;100.00
8061;BME280;4073;42.626;25.386;2023-06-26T08:25:16;96877.06;;;21.30;100.00
8061;BME280;4073;42.626;25.386;2023-06-26T08:27:42;96874.25;;;21.42;100.00
8061;BME280;4073;42.626;25.386;2023-06-26T08:30:08;96867.44;;;21.48;100.00
8061;BME280;4073;42.626;25.386;2023-06-26T08:32:33;96869.91;;;21.69;100.00
8061;BME280;4073;42.626;25.386;2023-06-26T08:34:59;96884.53;;;21.76;100.00
8061;BME280;4073;42.626;25.386;2023-06-26T08:37:24;96886.38;;;21.88;100.00
8061;BME280;4073;42.626;25.386;2023-06-26T08:39:50;96873.47;;;21.85;100.00
8061;BME280;4073;42.626;25.386;2023-06-26T08:42:15;96882.63;;;21.92;100.00
8061;BME280;4073;42.626;25.386;2023-06-26T08:44:41;96891.91;;;21.91;100.00
8061;BME280;4073;42.626;25.386;2023-06-26T08:47:07;96873.22;;;21.90;100.00
8061;BME280;4073;42.626;25.386;2023-06-26T08:49:40;96880.06;;;21.99;100.00
8061;BME280;4073;42.626;25.386;2023-06-26T08:52:30;96883.41;;;22.08;100.00
8061;BME280;4073;42.626;25.386;2023-06-26T08:55:02;96891.03;;;22.03;100.00
8061;BME280;4073;42.626;25.386;2023-06-26T08:57:28;96888.06;;;22.08;100.00
8061;BME280;4073;42.626;25.386;2023-06-26T08:59:56;96893.16;;;22.09;100.00
8061;BME280;4073;42.626;25.386;2023-06-26T09:02:22;96900.44;;;22.05;100.00
8061;BME280;4073;42.626;25.386;2023-06-26T09:04:48;96879.88;;;21.92;100.00
8061;BME280;4073;42.626;25.386;2023-06-26T09:07:14;96897.81;;;21.66;100.00
8061;BME280;4073;42.626;25.386;2023-06-26T09:09:40;96896.75;;;21.70;100.00
8061;BME280;4073;42.626;25.386;2023-06-26T09:12:06;96888.25;;;21.72;100.00
8061;BME280;4073;42.626;25.386;2023-06-26T09:14:32;96905.44;;;21.60;100.00
8061;BME280;4073;42.626;25.386;2023-06-26T09:16:57;96894.63;;;21.48;100.00
8061;BME280;4073;42.626;25.386;2023-06-26T09:19:23;96896.19;;;21.34;100.00
8061;BME280;4073;42.626;25.386;2023-06-26T09:21:50;96897.56;;;21.28;100.00
8061;BME280;4073;42.626;25.386;2023-06-26T09:24:16;96892.91;;;21.28;100.00
8061;BME280;4073;42.626;25.386;2023-06-26T09:26:42;96892.56;;;21.30;100.00
8061;BME280;4073;42.626;25.386;2023-06-26T09:29:09;96892.31;;;21.35;100.00
8061;BME280;4073;42.626;25.386;2023-06-26T09:31:38;96893.84;;;21.48;100.00
8061;BME280;4073;42.626;25.386;2023-06-26T09:34:04;96902.69;;;21.45;100.00
8061;BME280;4073;42.626;25.386;2023-06-26T09:36:30;96902.72;;;21.60;100.00
8061;BME280;4073;42.626;25.386;2023-06-26T09:39:04;96903.25;;;21.66;100.00
8061;BME280;4073;42.626;25.386;2023-06-26T09:41:30;96907.09;;;21.77;100.00
8061;BME280;4073;42.626;25.386;2023-06-26T09:44:00;96907.63;;;21.82;100.00
8061;BME280;4073;42.626;25.386;2023-06-26T09:46:27;96907.88;;;21.93;100.00
8061;BME280;4073;42.626;25.386;2023-06-26T09:49:01;96922.13;;;22.02;100.00
8061;BME280;4073;42.626;25.386;2023-06-26T09:51:30;96914.06;;;22.05;100.00
8061;BME280;4073;42.626;25.386;2023-06-26T09:53:56;96919.22;;;22.10;100.00
8061;BME280;4073;42.626;25.386;2023-06-26T09:56:21;96916.69;;;22.02;100.00
8061;BME280;4073;42.626;25.386;2023-06-26T09:58:47;96923.44;;;21.92;100.00
8061;BME280;4073;42.626;25.386;2023-06-26T10:01:14;96925.19;;;21.85;100.00
8061;BME280;4073;42.626;25.386;2023-06-26T10:03:39;96921.56;;;21.81;100.00
8061;BME280;4073;42.626;25.386;2023-06-26T10:06:05;96930.09;;;21.79;100.00
8061;BME280;4073;42.626;25.386;2023-06-26T10:08:34;96919.03;;;21.72;100.00
8061;BME280;4073;42.626;25.386;2023-06-26T10:11:02;96928.59;;;21.82;100.00
8061;BME280;4073;42.626;25.386;2023-06-26T10:13:31;96917.72;;;21.97;100.00
8061;BME280;4073;42.626;25.386;2023-06-26T10:15:59;96909.91;;;22.11;100.00
8061;BME280;4073;42.626;25.386;2023-06-26T10:18:26;96913.78;;;22.26;100.00
8061;BME280;4073;42.626;25.386;2023-06-26T10:20:55;96908.13;;;22.34;100.00
8061;BME280;4073;42.626;25.386;2023-06-26T10:23:23;96908.25;;;22.53;100.00
8061;BME280;4073;42.626;25.386;2023-06-26T10:25:51;96914.72;;;22.64;100.00
8061;BME280;4073;42.626;25.386;2023-06-26T10:28:18;96911.91;;;22.77;100.00
8061;BME280;4073;42.626;25.386;2023-06-26T10:30:47;96902.41;;;22.90;100.00
8061;BME280;4073;42.626;25.386;2023-06-26T10:33:13;96887.72;;;22.94;100.00
8061;BME280;4073;42.626;25.386;2023-06-26T10:35:45;96897.94;;;23.16;100.00
8061;BME280;4073;42.626;25.386;2023-06-26T10:38:11;96894.22;;;23.24;100.00
8061;BME280;4073;42.626;25.386;2023-06-26T10:40:44;96892.44;;;23.32;100.00
8061;BME280;4073;42.626;25.386;2023-06-26T10:43:12;96887.63;;;23.44;100.00
8061;BME280;4073;42.626;25.386;2023-06-26T10:45:48;96893.28;;;23.55;100.00
8061;BME280;4073;42.626;25.386;2023-06-26T10:48:19;96885.34;;;23.69;100.00
8061;BME280;4073;42.626;25.386;2023-06-26T10:50:48;96877.94;;;23.69;100.00
8061;BME280;4073;42.626;25.386;2023-06-26T10:55:48;96886.84;;;24.08;100.00
8061;BME280;4073;42.626;25.386;2023-06-26T11:01:23;96883.94;;;24.46;100.00
8061;BME280;4073;42.626;25.386;2023-06-26T11:06:23;96889.50;;;24.75;100.00
8061;BME280;4073;42.626;25.386;2023-06-26T11:08:51;96887.97;;;25.07;100.00
8061;BME280;4073;42.626;25.386;2023-06-26T11:14:05;96892.00;;;25.47;100.00
8061;BME280;4073;42.626;25.386;2023-06-26T11:16:32;96886.91;;;25.82;100.00
8061;BME280;4073;42.626;25.386;2023-06-26T11:18:58;96866.06;;;26.10;100.00
8061;BME280;4073;42.626;25.386;2023-06-26T11:21:24;96880.31;;;26.87;100.00
8061;BME280;4073;42.626;25.386;2023-06-26T11:23:50;96886.78;;;27.23;100.00
8061;BME280;4073;42.626;25.386;2023-06-26T11:26:20;96868.41;;;27.27;100.00
8061;BME280;4073;42.626;25.386;2023-06-26T11:28:54;96871.56;;;27.32;100.00
8061;BME280;4073;42.626;25.386;2023-06-26T11:31:30;96873.09;;;27.26;100.00
8061;BME280;4073;42.626;25.386;2023-06-26T11:33:57;96866.06;;;27.25;100.00
8061;BME280;4073;42.626;25.386;2023-06-26T11:36:24;96863.69;;;27.24;100.00
8061;BME280;4073;42.626;25.386;2023-06-26T11:39:01;96860.41;;;27.01;100.00
8061;BME280;4073;42.626;25.386;2023-06-26T11:41:31;96864.69;;;26.95;100.00
8061;BME280;4073;42.626;25.386;2023-06-26T11:44:03;96863.41;;;26.75;100.00
8061;BME280;4073;42.626;25.386;2023-06-26T11:46:30;96857.16;;;26.78;100.00
8061;BME280;4073;42.626;25.386;2023-06-26T11:48:55;96855.25;;;26.85;100.00
8061;BME280;4073;42.626;25.386;2023-06-26T11:51:21;96857.22;;;26.88;100.00
8061;BME280;4073;42.626;25.386;2023-06-26T11:53:47;96860.44;;;27.08;100.00
8061;BME280;4073;42.626;25.386;2023-06-26T11:56:15;96857.06;;;27.35;100.00
8061;BME280;4073;42.626;25.386;2023-06-26T12:01:43;96857.13;;;27.57;100.00
8061;BME280;4073;42.626;25.386;2023-06-26T12:04:12;96862.25;;;27.65;100.00
8061;BME280;4073;42.626;25.386;2023-06-26T12:06:41;96861.09;;;27.84;100.00
8061;BME280;4073;42.626;25.386;2023-06-26T12:09:09;96846.94;;;27.75;100.00
8061;BME280;4073;42.626;25.386;2023-06-26T12:11:38;96854.88;;;28.01;100.00
8061;BME280;4073;42.626;25.386;2023-06-26T12:14:05;96849.75;;;28.20;100.00
8061;BME280;4073;42.626;25.386;2023-06-26T12:16:33;96834.84;;;28.49;100.00
8061;BME280;4073;42.626;25.386;2023-06-26T12:19:04;96849.69;;;28.90;99.13
8061;BME280;4073;42.626;25.386;2023-06-26T12:24:12;96842.56;;;29.07;92.39
8061;BME280;4073;42.626;25.386;2023-06-26T12:26:38;96832.34;;;29.14;90.26
8061;BME280;4073;42.626;25.386;2023-06-26T12:29:12;96842.94;;;29.16;92.33
8061;BME280;4073;42.626;25.386;2023-06-26T12:31:42;96831.97;;;29.09;97.70
8061;BME280;4073;42.626;25.386;2023-06-26T12:34:12;96832.34;;;29.00;89.43
8061;BME280;4073;42.626;25.386;2023-06-26T12:36:47;96835.56;;;28.81;89.91
8061;BME280;4073;42.626;25.386;2023-06-26T12:39:16;96821.84;;;28.60;95.43
8061;BME280;4073;42.626;25.386;2023-06-26T12:42:14;96832.09;;;28.53;96.24
8061;BME280;4073;42.626;25.386;2023-06-26T12:44:41;96830.47;;;28.76;93.76
8061;BME280;4073;42.626;25.386;2023-06-26T12:47:06;96831.63;;;28.75;91.62
8061;BME280;4073;42.626;25.386;2023-06-26T12:49:36;96830.44;;;28.87;85.09
8061;BME280;4073;42.626;25.386;2023-06-26T12:52:03;96833.94;;;28.94;91.63
8061;BME280;4073;42.626;25.386;2023-06-26T12:54:29;96831.22;;;28.84;92.73
8061;BME280;4073;42.626;25.386;2023-06-26T12:56:55;96833.22;;;28.73;86.99
8061;BME280;4073;42.626;25.386;2023-06-26T12:59:21;96829.31;;;28.60;91.03
8061;BME280;4073;42.626;25.386;2023-06-26T13:01:47;96830.91;;;28.54;91.80
8061;BME280;4073;42.626;25.386;2023-06-26T13:04:12;96837.97;;;28.41;88.65
8061;BME280;4073;42.626;25.386;2023-06-26T13:06:38;96839.94;;;28.26;88.63
8061;BME280;4073;42.626;25.386;2023-06-26T13:09:03;96850.56;;;28.14;83.52
8061;BME280;4073;42.626;25.386;2023-06-26T13:11:30;96843.09;;;28.07;88.54
8061;BME280;4073;42.626;25.386;2023-06-26T13:13:56;96849.34;;;28.11;84.93
8061;BME280;4073;42.626;25.386;2023-06-26T13:16:21;96848.97;;;28.13;88.66